sensor_id;sensor_type;location;lat;lon;timestamp;P1;durP1;ratioP1;P2;durP2;ratioP2
5351;SDS011;2698;51.454;6.736;2023-07-08T00:00:13;4.93;;;3.10;;
5351;SDS011;2698;51.454;6.736;2023-07-08T00:02:42;4.60;;;2.83;;
5351;SDS011;2698;51.454;6.736;2023-07-08T00:05:10;6.50;;;3.70;;
5351;SDS011;2698;51.454;6.736;2023-07-08T00:07:37;5.67;;;3.90;;
5351;SDS011;2698;51.454;6.736;2023-07-08T00:10:11;5.93;;;3.60;;
5351;SDS011;2698;51.454;6.736;2023-07-08T00:12:38;10.17;;;4.83;;
5351;SDS011;2698;51.454;6.736;2023-07-08T00:15:06;4.83;;;3.77;;
5351;SDS011;2698;51.454;6.736;2023-07-08T00:17:33;3.60;;;3.30;;
5351;SDS011;2698;51.454;6.736;2023-07-08T00:20:04;4.47;;;3.73;;
5351;SDS011;2698;51.454;6.736;2023-07-08T00:22:34;5.77;;;3.73;;
5351;SDS011;2698;51.454;6.736;2023-07-08T00:25:04;7.13;;;4.23;;
5351;SDS011;2698;51.454;6.736;2023-07-08T00:27:31;10.03;;;3.80;;
5351;SDS011;2698;51.454;6.736;2023-07-08T00:29:58;6.40;;;3.23;;
5351;SDS011;2698;51.454;6.736;2023-07-08T00:32:26;4.73;;;4.30;;
5351;SDS011;2698;51.454;6.736;2023-07-08T00:34:53;13.07;;;4.40;;
5351;SDS011;2698;51.454;6.736;2023-07-08T00:37:22;9.20;;;4.33;;
5351;SDS011;2698;51.454;6.736;2023-07-08T00:39:55;15.13;;;4.37;;
5351;SDS011;2698;51.454;6.736;2023-07-08T00:42:22;7.90;;;4.27;;
5351;SDS011;2698;51.454;6.736;2023-07-08T00:44:51;5.30;;;3.97;;
5351;SDS011;2698;51.454;6.736;2023-07-08T00:47:18;7.20;;;3.67;;
5351;SDS011;2698;51.454;6.736;2023-07-08T00:49:48;14.30;;;5.00;;
5351;SDS011;2698;51.454;6.736;2023-07-08T00:52:18;7.83;;;3.77;;
5351;SDS011;2698;51.454;6.736;2023-07-08T00:54:47;5.97;;;3.80;;
5351;SDS011;2698;51.454;6.736;2023-07-08T00:57:15;10.40;;;4.20;;
5351;SDS011;2698;51.454;6.736;2023-07-08T00:59:44;9.10;;;4.20;;
5351;SDS011;2698;51.454;6.736;2023-07-08T01:02:12;8.13;;;3.90;;
5351;SDS011;2698;51.454;6.736;2023-07-08T01:04:42;6.20;;;3.27;;
5351;SDS011;2698;51.454;6.736;2023-07-08T01:07:11;4.60;;;4.20;;
5351;SDS011;2698;51.454;6.736;2023-07-08T01:09:44;7.70;;;4.27;;
5351;SDS011;2698;51.454;6.736;2023-07-08T01:12:14;6.73;;;3.50;;
5351;SDS011;2698;51.454;6.736;2023-07-08T01:14:43;7.27;;;3.47;;
5351;SDS011;2698;51.454;6.736;2023-07-08T01:17:10;3.97;;;3.60;;
5351;SDS011;2698;51.454;6.736;2023-07-08T01:19:39;8.10;;;3.73;;
5351;SDS011;2698;51.454;6.736;2023-07-08T01:22:08;4.93;;;3.70;;
5351;SDS011;2698;51.454;6.736;2023-07-08T01:24:36;9.30;;;3.23;;
5351;SDS011;2698;51.454;6.736;2023-07-08T01:27:05;15.77;;;3.60;;
5351;SDS011;2698;51.454;6.736;2023-07-08T01:29:33;7.33;;;3.70;;
5351;SDS011;2698;51.454;6.736;2023-07-08T01:32:01;4.10;;;3.53;;
5351;SDS011;2698;51.454;6.736;2023-07-08T01:34:28;4.57;;;4.13;;
5351;SDS011;2698;51.454;6.736;2023-07-08T01:36:56;6.50;;;4.10;;
5351;SDS011;2698;51.454;6.736;2023-07-08T01:39:26;6.20;;;3.70;;
5351;SDS011;2698;51.454;6.736;2023-07-08T01:41:53;9.30;;;3.97;;
5351;SDS011;2698;51.454;6.736;2023-07-08T01:44:27;8.40;;;4.70;;
5351;SDS011;2698;51.454;6.736;2023-07-08T01:46:55;10.07;;;4.37;;
5351;SDS011;2698;51.454;6.736;2023-07-08T01:49:23;9.70;;;4.00;;
5351;SDS011;2698;51.454;6.736;2023-07-08T01:51:50;5.73;;;3.40;;
5351;SDS011;2698;51.454;6.736;2023-07-08T01:54:17;3.97;;;3.40;;
5351;SDS011;2698;51.454;6.736;2023-07-08T01:56:46;3.93;;;3.53;;
5351;SDS011;2698;51.454;6.736;2023-07-08T01:59:16;18.70;;;4.30;;
5351;SDS011;2698;51.454;6.736;2023-07-08T02:01:44;5.80;;;3.80;;
5351;SDS011;2698;51.454;6.736;2023-07-08T02:04:12;7.50;;;3.77;;
5351;SDS011;2698;51.454;6.736;2023-07-08T02:06:39;5.07;;;3.83;;
5351;SDS011;2698;51.454;6.736;2023-07-08T02:09:07;7.17;;;3.93;;
5351;SDS011;2698;51.454;6.736;2023-07-08T02:11:34;8.23;;;3.97;;
5351;SDS011;2698;51.454;6.736;2023-07-08T02:14:03;7.00;;;3.53;;
5351;SDS011;2698;51.454;6.736;2023-07-08T02:16:30;4.50;;;3.33;;
5351;SDS011;2698;51.454;6.736;2023-07-08T02:18:58;8.60;;;4.07;;
5351;SDS011;2698;51.454;6.736;2023-07-08T02:21:25;7.50;;;4.17;;
5351;SDS011;2698;51.454;6.736;2023-07-08T02:23:55;4.30;;;3.90;;
5351;SDS011;2698;51.454;6.736;2023-07-08T02:26:23;4.87;;;3.23;;
5351;SDS011;2698;51.454;6.736;2023-07-08T02:28:51;8.10;;;5.00;;
5351;SDS011;2698;51.454;6.736;2023-07-08T02:31:20;4.67;;;3.70;;
5351;SDS011;2698;51.454;6.736;2023-07-08T02:33:49;5.67;;;4.03;;
5351;SDS011;2698;51.454;6.736;2023-07-08T02:36:17;7.27;;;3.93;;
5351;SDS011;2698;51.454;6.736;2023-07-08T02:38:44;6.40;;;4.30;;
5351;SDS011;2698;51.454;6.736;2023-07-08T02:41:11;14.77;;;3.47;;
5351;SDS011;2698;51.454;6.736;2023-07-08T02:43:39;7.43;;;4.97;;
5351;SDS011;2698;51.454;6.736;2023-07-08T02:46:06;7.17;;;3.40;;
5351;SDS011;2698;51.454;6.736;2023-07-08T02:48:35;3.37;;;3.07;;
5351;SDS011;2698;51.454;6.736;2023-07-08T02:51:03;5.30;;;3.40;;
5351;SDS011;2698;51.454;6.736;2023-07-08T02:53:30;4.27;;;3.87;;
5351;SDS011;2698;51.454;6.736;2023-07-08T02:55:57;5.93;;;4.03;;
5351;SDS011;2698;51.454;6.736;2023-07-08T02:58:24;10.87;;;4.47;;
5351;SDS011;2698;51.454;6.736;2023-07-08T03:00:52;4.67;;;3.40;;
5351;SDS011;2698;51.454;6.736;2023-07-08T03:03:19;7.13;;;3.57;;
5351;SDS011;2698;51.454;6.736;2023-07-08T03:05:54;6.70;;;4.00;;
5351;SDS011;2698;51.454;6.736;2023-07-08T03:08:21;5.67;;;3.40;;
5351;SDS011;2698;51.454;6.736;2023-07-08T03:10:53;4.67;;;3.57;;
5351;SDS011;2698;51.454;6.736;2023-07-08T03:13:21;4.03;;;3.43;;
5351;SDS011;2698;51.454;6.736;2023-07-08T03:15:48;4.27;;;3.97;;
5351;SDS011;2698;51.454;6.736;2023-07-08T03:18:15;15.20;;;4.53;;
5351;SDS011;2698;51.454;6.736;2023-07-08T03:20:42;5.33;;;3.90;;
5351;SDS011;2698;51.454;6.736;2023-07-08T03:23:12;4.50;;;3.53;;
5351;SDS011;2698;51.454;6.736;2023-07-08T03:25:39;11.97;;;3.80;;
5351;SDS011;2698;51.454;6.736;2023-07-08T03:28:07;10.30;;;3.87;;
5351;SDS011;2698;51.454;6.736;2023-07-08T03:30:39;8.03;;;4.10;;
5351;SDS011;2698;51.454;6.736;2023-07-08T03:33:07;4.63;;;3.43;;
5351;SDS011;2698;51.454;6.736;2023-07-08T03:35:34;12.57;;;4.30;;
5351;SDS011;2698;51.454;6.736;2023-07-08T03:38:01;4.83;;;3.73;;
5351;SDS011;2698;51.454;6.736;2023-07-08T03:40:30;6.10;;;3.50;;
5351;SDS011;2698;51.454;6.736;2023-07-08T03:42:57;5.30;;;4.13;;
5351;SDS011;2698;51.454;6.736;2023-07-08T03:45:24;7.90;;;4.33;;
5351;SDS011;2698;51.454;6.736;2023-07-08T03:47:52;7.73;;;4.20;;
5351;SDS011;2698;51.454;6.736;2023-07-08T03:50:20;4.20;;;3.77;;
5351;SDS011;2698;51.454;6.736;2023-07-08T03:52:47;4.80;;;3.97;;
5351;SDS011;2698;51.454;6.736;2023-07-08T03:55:15;4.10;;;3.77;;
5351;SDS011;2698;51.454;6.736;2023-07-08T03:57:44;9.10;;;4.00;;
5351;SDS011;2698;51.454;6.736;2023-07-08T04:00:11;12.33;;;3.60;;
5351;SDS011;2698;51.454;6.736;2023-07-08T04:02:39;5.47;;;3.80;;
5351;SDS011;2698;51.454;6.736;2023-07-08T04:05:06;5.47;;;3.40;;
5351;SDS011;2698;51.454;6.736;2023-07-08T04:07:34;4.90;;;3.50;;
5351;SDS011;2698;51.454;6.736;2023-07-08T04:10:01;47.00;;;5.93;;
5351;SDS011;2698;51.454;6.736;2023-07-08T04:12:28;5.07;;;4.37;;
5351;SDS011;2698;51.454;6.736;2023-07-08T04:14:57;5.77;;;4.60;;
5351;SDS011;2698;51.454;6.736;2023-07-08T04:17:24;6.50;;;3.80;;
5351;SDS011;2698;51.454;6.736;2023-07-08T04:19:51;11.13;;;4.27;;
5351;SDS011;2698;51.454;6.736;2023-07-08T04:22:20;4.40;;;3.97;;
5351;SDS011;2698;51.454;6.736;2023-07-08T04:24:47;5.53;;;3.77;;
5351;SDS011;2698;51.454;6.736;2023-07-08T04:27:15;6.17;;;3.97;;
5351;SDS011;2698;51.454;6.736;2023-07-08T04:29:42;10.50;;;4.17;;
5351;SDS011;2698;51.454;6.736;2023-07-08T04:32:11;15.53;;;3.70;;
5351;SDS011;2698;51.454;6.736;2023-07-08T04:34:38;4.43;;;3.67;;
5351;SDS011;2698;51.454;6.736;2023-07-08T04:37:07;16.33;;;4.23;;
5351;SDS011;2698;51.454;6.736;2023-07-08T04:39:35;4.10;;;3.70;;
5351;SDS011;2698;51.454;6.736;2023-07-08T04:42:02;17.23;;;4.00;;
5351;SDS011;2698;51.454;6.736;2023-07-08T04:44:29;8.73;;;3.50;;
5351;SDS011;2698;51.454;6.736;2023-07-08T04:46:57;8.13;;;4.40;;
5351;SDS011;2698;51.454;6.736;2023-07-08T04:49:26;11.53;;;4.40;;
5351;SDS011;2698;51.454;6.736;2023-07-08T04:51:58;8.13;;;4.60;;
5351;SDS011;2698;51.454;6.736;2023-07-08T04:54:26;5.13;;;4.00;;
5351;SDS011;2698;51.454;6.736;2023-07-08T04:56:54;18.63;;;4.80;;
5351;SDS011;2698;51.454;6.736;2023-07-08T04:59:22;14.50;;;4.97;;
5351;SDS011;2698;51.454;6.736;2023-07-08T05:01:50;6.70;;;4.00;;
5351;SDS011;2698;51.454;6.736;2023-07-08T05:04:20;4.53;;;3.80;;
5351;SDS011;2698;51.454;6.736;2023-07-08T05:06:49;13.87;;;3.60;;
5351;SDS011;2698;51.454;6.736;2023-07-08T05:09:17;6.37;;;4.40;;
5351;SDS011;2698;51.454;6.736;2023-07-08T05:11:47;9.83;;;3.93;;
5351;SDS011;2698;51.454;6.736;2023-07-08T05:14:14;7.53;;;4.37;;
5351;SDS011;2698;51.454;6.736;2023-07-08T05:16:41;6.70;;;3.53;;
5351;SDS011;2698;51.454;6.736;2023-07-08T05:19:08;6.30;;;3.93;;
5351;SDS011;2698;51.454;6.736;2023-07-08T05:21:36;10.03;;;4.37;;
5351;SDS011;2698;51.454;6.736;2023-07-08T05:24:05;3.97;;;3.67;;
5351;SDS011;2698;51.454;6.736;2023-07-08T05:26:32;7.40;;;4.27;;
5351;SDS011;2698;51.454;6.736;2023-07-08T05:29:00;16.30;;;4.97;;
5351;SDS011;2698;51.454;6.736;2023-07-08T05:31:27;10.50;;;4.40;;
5351;SDS011;2698;51.454;6.736;2023-07-08T05:33:54;6.10;;;3.63;;
5351;SDS011;2698;51.454;6.736;2023-07-08T05:36:21;5.87;;;4.30;;
5351;SDS011;2698;51.454;6.736;2023-07-08T05:38:49;8.63;;;4.03;;
5351;SDS011;2698;51.454;6.736;2023-07-08T05:41:17;10.20;;;5.00;;
5351;SDS011;2698;51.454;6.736;2023-07-08T05:43:44;8.13;;;3.77;;
5351;SDS011;2698;51.454;6.736;2023-07-08T05:46:11;6.70;;;4.57;;
5351;SDS011;2698;51.454;6.736;2023-07-08T05:48:39;7.90;;;4.57;;
5351;SDS011;2698;51.454;6.736;2023-07-08T05:51:06;7.63;;;4.90;;
5351;SDS011;2698;51.454;6.736;2023-07-08T05:53:33;7.50;;;3.90;;
5351;SDS011;2698;51.454;6.736;2023-07-08T05:56:01;5.43;;;4.07;;
5351;SDS011;2698;51.454;6.736;2023-07-08T05:58:30;5.93;;;4.03;;
5351;SDS011;2698;51.454;6.736;2023-07-08T06:00:57;7.93;;;4.70;;
5351;SDS011;2698;51.454;6.736;2023-07-08T06:03:25;9.13;;;4.03;;
5351;SDS011;2698;51.454;6.736;2023-07-08T06:05:52;5.87;;;4.37;;
5351;SDS011;2698;51.454;6.736;2023-07-08T06:08:19;8.00;;;4.20;;
5351;SDS011;2698;51.454;6.736;2023-07-08T06:10:46;8.33;;;3.97;;
5351;SDS011;2698;51.454;6.736;2023-07-08T06:13:14;5.93;;;4.07;;
5351;SDS011;2698;51.454;6.736;2023-07-08T06:15:43;8.23;;;4.40;;
5351;SDS011;2698;51.454;6.736;2023-07-08T06:18:10;6.55;;;4.13;;
5351;SDS011;2698;51.454;6.736;2023-07-08T06:20:37;5.80;;;3.53;;
5351;SDS011;2698;51.454;6.736;2023-07-08T06:23:04;7.00;;;4.00;;
5351;SDS011;2698;51.454;6.736;2023-07-08T06:25:31;9.80;;;4.55;;
5351;SDS011;2698;51.454;6.736;2023-07-08T06:27:58;6.68;;;3.80;;
5351;SDS011;2698;51.454;6.736;2023-07-08T06:30:26;6.70;;;4.63;;
5351;SDS011;2698;51.454;6.736;2023-07-08T06:32:54;5.50;;;4.15;;
5351;SDS011;2698;51.454;6.736;2023-07-08T06:35:22;4.63;;;4.22;;
5351;SDS011;2698;51.454;6.736;2023-07-08T06:37:49;10.18;;;3.85;;
5351;SDS011;2698;51.454;6.736;2023-07-08T06:40:16;9.27;;;3.88;;
5351;SDS011;2698;51.454;6.736;2023-07-08T06:42:44;4.32;;;3.58;;
5351;SDS011;2698;51.454;6.736;2023-07-08T06:45:11;17.55;;;4.63;;
5351;SDS011;2698;51.454;6.736;2023-07-08T06:47:39;10.45;;;4.78;;
5351;SDS011;2698;51.454;6.736;2023-07-08T06:50:08;6.05;;;3.78;;
5351;SDS011;2698;51.454;6.736;2023-07-08T06:52:35;11.93;;;4.78;;
5351;SDS011;2698;51.454;6.736;2023-07-08T06:55:03;11.68;;;4.97;;
5351;SDS011;2698;51.454;6.736;2023-07-08T06:57:30;12.20;;;4.47;;
5351;SDS011;2698;51.454;6.736;2023-07-08T06:59:57;12.15;;;4.78;;
5351;SDS011;2698;51.454;6.736;2023-07-08T07:02:25;15.55;;;4.40;;
5351;SDS011;2698;51.454;6.736;2023-07-08T07:04:52;6.43;;;5.43;;
5351;SDS011;2698;51.454;6.736;2023-07-08T07:07:21;8.23;;;4.15;;
5351;SDS011;2698;51.454;6.736;2023-07-08T07:09:48;14.80;;;4.40;;
5351;SDS011;2698;51.454;6.736;2023-07-08T07:12:16;5.53;;;4.25;;
5351;SDS011;2698;51.454;6.736;2023-07-08T07:14:43;6.75;;;4.10;;
5351;SDS011;2698;51.454;6.736;2023-07-08T07:17:10;4.88;;;4.22;;
5351;SDS011;2698;51.454;6.736;2023-07-08T07:19:37;6.57;;;4.55;;
5351;SDS011;2698;51.454;6.736;2023-07-08T07:22:05;5.10;;;4.60;;
5351;SDS011;2698;51.454;6.736;2023-07-08T07:24:33;10.10;;;4.78;;
5351;SDS011;2698;51.454;6.736;2023-07-08T07:27:00;7.97;;;4.60;;
5351;SDS011;2698;51.454;6.736;2023-07-08T07:29:28;5.75;;;5.13;;
5351;SDS011;2698;51.454;6.736;2023-07-08T07:31:55;5.00;;;4.47;;
5351;SDS011;2698;51.454;6.736;2023-07-08T07:34:22;8.07;;;4.63;;
5351;SDS011;2698;51.454;6.736;2023-07-08T07:36:49;6.05;;;5.00;;
5351;SDS011;2698;51.454;6.736;2023-07-08T07:39:16;9.70;;;4.80;;
5351;SDS011;2698;51.454;6.736;2023-07-08T07:41:45;6.93;;;4.63;;
5351;SDS011;2698;51.454;6.736;2023-07-08T07:44:12;9.68;;;5.28;;
5351;SDS011;2698;51.454;6.736;2023-07-08T07:46:39;9.77;;;4.15;;
5351;SDS011;2698;51.454;6.736;2023-07-08T07:49:06;6.70;;;3.92;;
5351;SDS011;2698;51.454;6.736;2023-07-08T07:51:34;5.30;;;4.80;;
5351;SDS011;2698;51.454;6.736;2023-07-08T07:54:01;6.53;;;5.30;;
5351;SDS011;2698;51.454;6.736;2023-07-08T07:56:28;6.72;;;4.60;;
5351;SDS011;2698;51.454;6.736;2023-07-08T07:58:57;5.75;;;4.93;;
5351;SDS011;2698;51.454;6.736;2023-07-08T08:01:24;9.07;;;5.22;;
5351;SDS011;2698;51.454;6.736;2023-07-08T08:03:51;6.15;;;4.43;;
5351;SDS011;2698;51.454;6.736;2023-07-08T08:06:18;7.97;;;5.72;;
5351;SDS011;2698;51.454;6.736;2023-07-08T08:08:45;6.22;;;5.45;;
5351;SDS011;2698;51.454;6.736;2023-07-08T08:11:14;6.22;;;5.63;;
5351;SDS011;2698;51.454;6.736;2023-07-08T08:13:41;9.32;;;6.40;;
5351;SDS011;2698;51.454;6.736;2023-07-08T08:16:10;7.60;;;5.93;;
5351;SDS011;2698;51.454;6.736;2023-07-08T08:18:37;9.50;;;6.45;;
5351;SDS011;2698;51.454;6.736;2023-07-08T08:21:04;8.60;;;6.90;;
5351;SDS011;2698;51.454;6.736;2023-07-08T08:23:32;7.93;;;6.40;;
5351;SDS011;2698;51.454;6.736;2023-07-08T08:25:59;6.88;;;6.18;;
5351;SDS011;2698;51.454;6.736;2023-07-08T08:28:26;7.93;;;6.57;;
5351;SDS011;2698;51.454;6.736;2023-07-08T08:30:53;11.65;;;6.93;;
5351;SDS011;2698;51.454;6.736;2023-07-08T08:33:22;17.00;;;6.97;;
5351;SDS011;2698;51.454;6.736;2023-07-08T08:35:49;9.02;;;6.35;;
5351;SDS011;2698;51.454;6.736;2023-07-08T08:38:16;11.68;;;7.65;;
5351;SDS011;2698;51.454;6.736;2023-07-08T08:40:44;7.68;;;6.95;;
5351;SDS011;2698;51.454;6.736;2023-07-08T08:43:12;8.40;;;6.55;;
5351;SDS011;2698;51.454;6.736;2023-07-08T08:45:43;9.18;;;7.40;;
5351;SDS011;2698;51.454;6.736;2023-07-08T08:48:13;8.10;;;6.60;;
5351;SDS011;2698;51.454;6.736;2023-07-08T08:50:44;10.23;;;7.15;;
5351;SDS011;2698;51.454;6.736;2023-07-08T08:53:14;10.88;;;6.50;;
5351;SDS011;2698;51.454;6.736;2023-07-08T08:55:42;7.20;;;6.50;;
5351;SDS011;2698;51.454;6.736;2023-07-08T08:58:13;8.18;;;6.68;;
5351;SDS011;2698;51.454;6.736;2023-07-08T09:00:49;9.57;;;6.82;;
5351;SDS011;2698;51.454;6.736;2023-07-08T09:03:21;11.40;;;6.63;;
5351;SDS011;2698;51.454;6.736;2023-07-08T09:05:53;11.55;;;5.97;;
5351;SDS011;2698;51.454;6.736;2023-07-08T09:08:23;7.82;;;6.75;;
5351;SDS011;2698;51.454;6.736;2023-07-08T09:10:55;7.72;;;6.80;;
5351;SDS011;2698;51.454;6.736;2023-07-08T09:13:25;9.90;;;6.85;;
5351;SDS011;2698;51.454;6.736;2023-07-08T09:15:54;12.40;;;6.57;;
5351;SDS011;2698;51.454;6.736;2023-07-08T09:18:27;8.43;;;6.53;;
5351;SDS011;2698;51.454;6.736;2023-07-08T09:20:59;9.50;;;6.13;;
5351;SDS011;2698;51.454;6.736;2023-07-08T09:23:29;10.68;;;6.60;;
5351;SDS011;2698;51.454;6.736;2023-07-08T09:25:57;10.13;;;6.40;;
5351;SDS011;2698;51.454;6.736;2023-07-08T09:28:35;6.50;;;5.85;;
5351;SDS011;2698;51.454;6.736;2023-07-08T09:31:03;9.63;;;6.50;;
5351;SDS011;2698;51.454;6.736;2023-07-08T09:33:32;7.15;;;5.57;;
5351;SDS011;2698;51.454;6.736;2023-07-08T09:36:01;9.45;;;6.68;;
5351;SDS011;2698;51.454;6.736;2023-07-08T09:38:28;11.52;;;6.25;;
5351;SDS011;2698;51.454;6.736;2023-07-08T09:40:55;7.68;;;6.45;;
5351;SDS011;2698;51.454;6.736;2023-07-08T09:43:24;10.55;;;4.95;;
5351;SDS011;2698;51.454;6.736;2023-07-08T09:45:51;6.93;;;5.20;;
5351;SDS011;2698;51.454;6.736;2023-07-08T09:48:20;5.68;;;5.13;;
5351;SDS011;2698;51.454;6.736;2023-07-08T09:50:49;6.15;;;5.55;;
5351;SDS011;2698;51.454;6.736;2023-07-08T09:53:19;8.27;;;6.47;;
5351;SDS011;2698;51.454;6.736;2023-07-08T09:55:46;11.23;;;6.70;;
5351;SDS011;2698;51.454;6.736;2023-07-08T09:58:15;10.15;;;5.28;;
5351;SDS011;2698;51.454;6.736;2023-07-08T10:00:43;6.10;;;5.35;;
5351;SDS011;2698;51.454;6.736;2023-07-08T10:03:11;5.38;;;4.88;;
5351;SDS011;2698;51.454;6.736;2023-07-08T10:05:43;5.40;;;4.50;;
5351;SDS011;2698;51.454;6.736;2023-07-08T10:08:15;12.30;;;5.15;;
5351;SDS011;2698;51.454;6.736;2023-07-08T10:10:44;16.98;;;5.25;;
5351;SDS011;2698;51.454;6.736;2023-07-08T10:13:15;5.65;;;4.90;;
5351;SDS011;2698;51.454;6.736;2023-07-08T10:15:45;6.30;;;4.97;;
5351;SDS011;2698;51.454;6.736;2023-07-08T10:18:13;10.45;;;5.88;;
5351;SDS011;2698;51.454;6.736;2023-07-08T10:20:44;8.75;;;6.93;;
5351;SDS011;2698;51.454;6.736;2023-07-08T10:23:16;8.88;;;5.82;;
5351;SDS011;2698;51.454;6.736;2023-07-08T10:25:46;6.13;;;5.38;;
5351;SDS011;2698;51.454;6.736;2023-07-08T10:28:26;10.40;;;6.50;;
5351;SDS011;2698;51.454;6.736;2023-07-08T10:30:57;6.70;;;4.38;;
5351;SDS011;2698;51.454;6.736;2023-07-08T10:33:31;7.30;;;5.85;;
5351;SDS011;2698;51.454;6.736;2023-07-08T10:36:05;6.22;;;5.10;;
5351;SDS011;2698;51.454;6.736;2023-07-08T10:38:40;11.38;;;6.07;;
5351;SDS011;2698;51.454;6.736;2023-07-08T10:41:14;8.07;;;5.05;;
5351;SDS011;2698;51.454;6.736;2023-07-08T10:43:48;8.55;;;5.63;;
5351;SDS011;2698;51.454;6.736;2023-07-08T10:46:26;7.28;;;5.80;;
5351;SDS011;2698;51.454;6.736;2023-07-08T10:51:38;9.27;;;5.90;;
5351;SDS011;2698;51.454;6.736;2023-07-08T10:54:18;13.05;;;5.05;;
5351;SDS011;2698;51.454;6.736;2023-07-08T10:56:50;6.05;;;4.50;;
5351;SDS011;2698;51.454;6.736;2023-07-08T10:59:23;9.25;;;4.80;;
5351;SDS011;2698;51.454;6.736;2023-07-08T11:01:59;6.63;;;5.75;;
5351;SDS011;2698;51.454;6.736;2023-07-08T11:04:37;6.97;;;5.32;;
5351;SDS011;2698;51.454;6.736;2023-07-08T11:07:09;7.30;;;6.40;;
5351;SDS011;2698;51.454;6.736;2023-07-08T11:09:39;7.00;;;6.13;;
5351;SDS011;2698;51.454;6.736;2023-07-08T11:12:11;7.38;;;5.80;;
5351;SDS011;2698;51.454;6.736;2023-07-08T11:14:42;7.07;;;5.03;;
5351;SDS011;2698;51.454;6.736;2023-07-08T11:17:13;7.68;;;5.18;;
5351;SDS011;2698;51.454;6.736;2023-07-08T11:19:45;5.30;;;4.85;;
5351;SDS011;2698;51.454;6.736;2023-07-08T11:22:14;6.05;;;4.93;;
5351;SDS011;2698;51.454;6.736;2023-07-08T11:24:43;5.53;;;4.20;;
5351;SDS011;2698;51.454;6.736;2023-07-08T11:27:15;6.05;;;5.30;;
5351;SDS011;2698;51.454;6.736;2023-07-08T11:29:45;5.47;;;4.53;;
5351;SDS011;2698;51.454;6.736;2023-07-08T11:32:15;6.15;;;5.43;;
5351;SDS011;2698;51.454;6.736;2023-07-08T11:34:43;6.55;;;5.15;;
5351;SDS011;2698;51.454;6.736;2023-07-08T11:37:11;15.63;;;5.28;;
5351;SDS011;2698;51.454;6.736;2023-07-08T11:39:41;5.45;;;4.68;;
5351;SDS011;2698;51.454;6.736;2023-07-08T11:42:11;6.03;;;4.75;;
5351;SDS011;2698;51.454;6.736;2023-07-08T11:44:42;5.10;;;4.38;;
5351;SDS011;2698;51.454;6.736;2023-07-08T11:47:15;7.80;;;4.03;;
5351;SDS011;2698;51.454;6.736;2023-07-08T11:49:42;6.65;;;4.93;;
5351;SDS011;2698;51.454;6.736;2023-07-08T11:52:11;5.60;;;4.10;;
5351;SDS011;2698;51.454;6.736;2023-07-08T11:54:42;9.75;;;4.22;;
5351;SDS011;2698;51.454;6.736;2023-07-08T11:57:16;9.05;;;4.72;;
5351;SDS011;2698;51.454;6.736;2023-07-08T11:59:45;5.22;;;4.72;;
5351;SDS011;2698;51.454;6.736;2023-07-08T12:02:13;7.35;;;4.95;;
5351;SDS011;2698;51.454;6.736;2023-07-08T12:04:55;6.00;;;4.68;;
5351;SDS011;2698;51.454;6.736;2023-07-08T12:07:29;7.90;;;4.38;;
5351;SDS011;2698;51.454;6.736;2023-07-08T12:09:58;9.68;;;5.00;;
5351;SDS011;2698;51.454;6.736;2023-07-08T12:12:28;6.82;;;4.18;;
5351;SDS011;2698;51.454;6.736;2023-07-08T12:15:00;6.28;;;4.68;;
5351;SDS011;2698;51.454;6.736;2023-07-08T12:17:28;7.53;;;5.63;;
5351;SDS011;2698;51.454;6.736;2023-07-08T12:20:04;7.00;;;4.78;;
5351;SDS011;2698;51.454;6.736;2023-07-08T12:22:33;5.65;;;4.55;;
5351;SDS011;2698;51.454;6.736;2023-07-08T12:25:00;8.20;;;5.50;;
5351;SDS011;2698;51.454;6.736;2023-07-08T12:27:30;9.70;;;4.72;;
5351;SDS011;2698;51.454;6.736;2023-07-08T12:29:57;6.30;;;4.57;;
5351;SDS011;2698;51.454;6.736;2023-07-08T12:32:26;5.60;;;4.57;;
5351;SDS011;2698;51.454;6.736;2023-07-08T12:34:53;10.35;;;5.13;;
5351;SDS011;2698;51.454;6.736;2023-07-08T12:37:21;6.25;;;4.50;;
5351;SDS011;2698;51.454;6.736;2023-07-08T12:39:53;9.50;;;4.28;;
5351;SDS011;2698;51.454;6.736;2023-07-08T12:42:21;9.88;;;5.00;;
5351;SDS011;2698;51.454;6.736;2023-07-08T12:44:48;8.13;;;5.45;;
5351;SDS011;2698;51.454;6.736;2023-07-08T12:47:20;5.32;;;4.45;;
5351;SDS011;2698;51.454;6.736;2023-07-08T12:49:49;5.65;;;4.85;;
5351;SDS011;2698;51.454;6.736;2023-07-08T12:52:21;5.78;;;4.40;;
5351;SDS011;2698;51.454;6.736;2023-07-08T12:54:49;9.25;;;4.88;;
5351;SDS011;2698;51.454;6.736;2023-07-08T12:57:16;5.78;;;5.22;;
5351;SDS011;2698;51.454;6.736;2023-07-08T12:59:44;6.05;;;4.75;;
5351;SDS011;2698;51.454;6.736;2023-07-08T13:02:14;4.82;;;4.07;;
5351;SDS011;2698;51.454;6.736;2023-07-08T13:04:42;6.75;;;4.82;;
5351;SDS011;2698;51.454;6.736;2023-07-08T13:07:14;9.85;;;5.07;;
5351;SDS011;2698;51.454;6.736;2023-07-08T13:09:46;6.03;;;4.53;;
5351;SDS011;2698;51.454;6.736;2023-07-08T13:12:15;5.05;;;4.45;;
5351;SDS011;2698;51.454;6.736;2023-07-08T13:14:43;6.20;;;4.32;;
5351;SDS011;2698;51.454;6.736;2023-07-08T13:17:12;7.57;;;4.72;;
5351;SDS011;2698;51.454;6.736;2023-07-08T13:19:40;7.88;;;5.28;;
5351;SDS011;2698;51.454;6.736;2023-07-08T13:22:09;6.00;;;5.25;;
5351;SDS011;2698;51.454;6.736;2023-07-08T13:24:39;10.32;;;6.05;;
5351;SDS011;2698;51.454;6.736;2023-07-08T13:27:06;9.63;;;4.97;;
5351;SDS011;2698;51.454;6.736;2023-07-08T13:29:35;7.50;;;4.72;;
5351;SDS011;2698;51.454;6.736;2023-07-08T13:32:04;8.43;;;5.75;;
5351;SDS011;2698;51.454;6.736;2023-07-08T13:34:32;8.45;;;5.10;;
5351;SDS011;2698;51.454;6.736;2023-07-08T13:36:59;6.88;;;5.18;;
5351;SDS011;2698;51.454;6.736;2023-07-08T13:39:27;6.00;;;4.90;;
5351;SDS011;2698;51.454;6.736;2023-07-08T13:41:58;10.93;;;4.50;;
5351;SDS011;2698;51.454;6.736;2023-07-08T13:44:25;6.20;;;4.22;;
5351;SDS011;2698;51.454;6.736;2023-07-08T13:46:54;5.63;;;4.55;;
5351;SDS011;2698;51.454;6.736;2023-07-08T13:49:23;8.63;;;4.72;;
5351;SDS011;2698;51.454;6.736;2023-07-08T13:52:03;5.90;;;4.57;;
5351;SDS011;2698;51.454;6.736;2023-07-08T13:54:32;8.07;;;4.90;;
5351;SDS011;2698;51.454;6.736;2023-07-08T13:57:01;8.25;;;5.43;;
5351;SDS011;2698;51.454;6.736;2023-07-08T13:59:28;7.88;;;4.85;;
5351;SDS011;2698;51.454;6.736;2023-07-08T14:01:56;6.38;;;5.03;;
5351;SDS011;2698;51.454;6.736;2023-07-08T14:04:27;11.07;;;5.10;;
5351;SDS011;2698;51.454;6.736;2023-07-08T14:06:54;5.93;;;4.82;;
5351;SDS011;2698;51.454;6.736;2023-07-08T14:09:22;8.02;;;5.07;;
5351;SDS011;2698;51.454;6.736;2023-07-08T14:11:50;7.63;;;4.88;;
5351;SDS011;2698;51.454;6.736;2023-07-08T14:14:19;5.35;;;3.97;;
5351;SDS011;2698;51.454;6.736;2023-07-08T14:16:47;6.07;;;5.30;;
5351;SDS011;2698;51.454;6.736;2023-07-08T14:19:16;5.45;;;4.95;;
5351;SDS011;2698;51.454;6.736;2023-07-08T14:21:43;7.65;;;5.18;;
5351;SDS011;2698;51.454;6.736;2023-07-08T14:24:11;5.43;;;4.03;;
5351;SDS011;2698;51.454;6.736;2023-07-08T14:26:40;10.45;;;5.05;;
5351;SDS011;2698;51.454;6.736;2023-07-08T14:29:08;6.70;;;5.00;;
5351;SDS011;2698;51.454;6.736;2023-07-08T14:31:37;10.68;;;4.68;;
5351;SDS011;2698;51.454;6.736;2023-07-08T14:34:06;7.85;;;4.70;;
5351;SDS011;2698;51.454;6.736;2023-07-08T14:36:34;7.90;;;4.50;;
5351;SDS011;2698;51.454;6.736;2023-07-08T14:39:07;6.65;;;5.28;;
5351;SDS011;2698;51.454;6.736;2023-07-08T14:41:35;6.63;;;4.28;;
5351;SDS011;2698;51.454;6.736;2023-07-08T14:44:04;5.32;;;4.72;;
5351;SDS011;2698;51.454;6.736;2023-07-08T14:46:34;6.97;;;4.68;;
5351;SDS011;2698;51.454;6.736;2023-07-08T14:49:07;6.18;;;5.15;;
5351;SDS011;2698;51.454;6.736;2023-07-08T14:51:35;9.43;;;4.70;;
5351;SDS011;2698;51.454;6.736;2023-07-08T14:54:03;5.80;;;4.38;;
5351;SDS011;2698;51.454;6.736;2023-07-08T14:56:30;4.88;;;4.18;;
5351;SDS011;2698;51.454;6.736;2023-07-08T14:58:57;8.43;;;4.40;;
5351;SDS011;2698;51.454;6.736;2023-07-08T15:01:25;6.20;;;5.07;;
5351;SDS011;2698;51.454;6.736;2023-07-08T15:03:55;6.93;;;4.60;;
5351;SDS011;2698;51.454;6.736;2023-07-08T15:06:23;10.38;;;4.25;;
5351;SDS011;2698;51.454;6.736;2023-07-08T15:08:51;8.65;;;5.00;;
5351;SDS011;2698;51.454;6.736;2023-07-08T15:11:18;20.55;;;4.90;;
5351;SDS011;2698;51.454;6.736;2023-07-08T15:13:47;6.95;;;4.75;;
5351;SDS011;2698;51.454;6.736;2023-07-08T15:16:16;5.25;;;4.45;;
5351;SDS011;2698;51.454;6.736;2023-07-08T15:18:43;5.45;;;4.22;;
5351;SDS011;2698;51.454;6.736;2023-07-08T15:21:10;9.43;;;5.13;;
5351;SDS011;2698;51.454;6.736;2023-07-08T15:23:39;7.43;;;5.32;;